Terminal Aerodrome Forecast
Issued by NWS King Salmon, AK

Home | Current Version | Previous Version | Text Only | Print | Product List | Glossary On
Versions: 1 2 3 4 5 6 7 8 9 10 11 12 13 14 15 16 17 18 19 20 21 22 23 24
000
FTAK31 PANC 302009 AAA
TAFAKN
TAF AMD
PAKN 302009Z 3020/3118 17013KT P6SM -RA VCSH SCT015 BKN025
     FM302200 16015G22KT P6SM -SHRA SCT025 BKN035
     FM310300 12015KT P6SM SCT035 BKN070
     FM310900 07009KT P6SM BKN100=

USA.gov is the U.S. government's official web portal to all federal, state and local government web resources and services.